sensor_id;sensor_type;location;lat;lon;timestamp;P1;durP1;ratioP1;P2;durP2;ratioP2
56141;SDS011;42018;48.588;10.836;2023-10-31T07:00:26;3.33;;;1.20;;
56141;SDS011;42018;48.588;10.836;2023-10-31T07:03:12;3.95;;;1.35;;
56141;SDS011;42018;48.588;10.836;2023-10-31T07:06:18;3.97;;;1.60;;
56141;SDS011;42018;48.588;10.836;2023-10-31T07:09:03;3.08;;;1.55;;
56141;SDS011;42018;48.588;10.836;2023-10-31T07:11:50;2.80;;;1.50;;
56141;SDS011;42018;48.588;10.836;2023-10-31T07:14:35;3.55;;;1.55;;
56141;SDS011;42018;48.588;10.836;2023-10-31T07:17:21;4.07;;;1.50;;
56141;SDS011;42018;48.588;10.836;2023-10-31T07:20:06;2.70;;;1.30;;
56141;SDS011;42018;48.588;10.836;2023-10-31T07:22:52;5.70;;;1.63;;
56141;SDS011;42018;48.588;10.836;2023-10-31T07:25:37;2.45;;;1.30;;
56141;SDS011;42018;48.588;10.836;2023-10-31T07:28:23;2.58;;;1.20;;
56141;SDS011;42018;48.588;10.836;2023-10-31T07:31:08;4.05;;;1.40;;
56141;SDS011;42018;48.588;10.836;2023-10-31T07:33:54;2.45;;;1.25;;
56141;SDS011;42018;48.588;10.836;2023-10-31T07:36:39;3.28;;;1.40;;
56141;SDS011;42018;48.588;10.836;2023-10-31T07:39:26;2.78;;;1.25;;
56141;SDS011;42018;48.588;10.836;2023-10-31T07:42:12;2.45;;;1.15;;
56141;SDS011;42018;48.588;10.836;2023-10-31T07:44:57;3.90;;;1.10;;
56141;SDS011;42018;48.588;10.836;2023-10-31T07:47:42;2.55;;;1.30;;
56141;SDS011;42018;48.588;10.836;2023-10-31T07:50:28;2.75;;;1.30;;
56141;SDS011;42018;48.588;10.836;2023-10-31T07:53:13;2.53;;;1.17;;
56141;SDS011;42018;48.588;10.836;2023-10-31T07:55:58;3.00;;;1.20;;
56141;SDS011;42018;48.588;10.836;2023-10-31T07:58:44;1.50;;;0.98;;
56141;SDS011;42018;48.588;10.836;2023-10-31T08:01:29;2.22;;;1.13;;
56141;SDS011;42018;48.588;10.836;2023-10-31T08:04:14;2.95;;;1.20;;
56141;SDS011;42018;48.588;10.836;2023-10-31T08:07:01;3.30;;;1.17;;
56141;SDS011;42018;48.588;10.836;2023-10-31T08:09:46;1.77;;;1.13;;
56141;SDS011;42018;48.588;10.836;2023-10-31T08:12:32;2.70;;;1.20;;
56141;SDS011;42018;48.588;10.836;2023-10-31T08:15:17;2.10;;;1.23;;
56141;SDS011;42018;48.588;10.836;2023-10-31T08:18:03;3.35;;;1.38;;
56141;SDS011;42018;48.588;10.836;2023-10-31T08:20:48;2.70;;;1.30;;
56141;SDS011;42018;48.588;10.836;2023-10-31T08:23:35;3.70;;;1.42;;
56141;SDS011;42018;48.588;10.836;2023-10-31T08:26:21;2.92;;;1.23;;
56141;SDS011;42018;48.588;10.836;2023-10-31T08:29:06;3.05;;;1.38;;
56141;SDS011;42018;48.588;10.836;2023-10-31T08:31:52;2.50;;;1.20;;
56141;SDS011;42018;48.588;10.836;2023-10-31T08:34:37;2.58;;;1.02;;
56141;SDS011;42018;48.588;10.836;2023-10-31T08:37:22;2.65;;;1.10;;
56141;SDS011;42018;48.588;10.836;2023-10-31T08:40:08;3.10;;;1.23;;
56141;SDS011;42018;48.588;10.836;2023-10-31T08:42:54;2.45;;;1.08;;
56141;SDS011;42018;48.588;10.836;2023-10-31T08:45:40;1.52;;;0.90;;
56141;SDS011;42018;48.588;10.836;2023-10-31T08:48:26;3.25;;;1.27;;
56141;SDS011;42018;48.588;10.836;2023-10-31T08:51:11;3.95;;;1.10;;
56141;SDS011;42018;48.588;10.836;2023-10-31T08:53:57;4.18;;;1.30;;
56141;SDS011;42018;48.588;10.836;2023-10-31T08:56:43;2.53;;;1.02;;
56141;SDS011;42018;48.588;10.836;2023-10-31T08:59:29;2.25;;;1.10;;
56141;SDS011;42018;48.588;10.836;2023-10-31T09:02:14;3.05;;;1.20;;
56141;SDS011;42018;48.588;10.836;2023-10-31T09:05:00;2.20;;;1.00;;
56141;SDS011;42018;48.588;10.836;2023-10-31T09:07:48;2.60;;;1.10;;
56141;SDS011;42018;48.588;10.836;2023-10-31T09:10:35;3.00;;;0.93;;
56141;SDS011;42018;48.588;10.836;2023-10-31T09:13:23;1.52;;;0.93;;
56141;SDS011;42018;48.588;10.836;2023-10-31T09:16:08;2.70;;;0.88;;
56141;SDS011;42018;48.588;10.836;2023-10-31T09:18:53;2.80;;;1.10;;
56141;SDS011;42018;48.588;10.836;2023-10-31T09:21:39;1.42;;;0.90;;
56141;SDS011;42018;48.588;10.836;2023-10-31T09:24:24;2.22;;;1.00;;
56141;SDS011;42018;48.588;10.836;2023-10-31T09:27:10;3.22;;;1.10;;
56141;SDS011;42018;48.588;10.836;2023-10-31T09:29:55;2.03;;;0.90;;
56141;SDS011;42018;48.588;10.836;2023-10-31T09:32:40;1.73;;;0.90;;
56141;SDS011;42018;48.588;10.836;2023-10-31T09:35:26;2.90;;;1.10;;
56141;SDS011;42018;48.588;10.836;2023-10-31T09:38:11;3.28;;;1.20;;
56141;SDS011;42018;48.588;10.836;2023-10-31T09:40:56;2.75;;;1.10;;
56141;SDS011;42018;48.588;10.836;2023-10-31T09:43:42;3.47;;;1.20;;
56141;SDS011;42018;48.588;10.836;2023-10-31T09:46:30;3.25;;;1.20;;
56141;SDS011;42018;48.588;10.836;2023-10-31T09:49:16;1.95;;;1.08;;
56141;SDS011;42018;48.588;10.836;2023-10-31T09:52:02;1.95;;;1.02;;
56141;SDS011;42018;48.588;10.836;2023-10-31T09:54:49;1.60;;;0.85;;
56141;SDS011;42018;48.588;10.836;2023-10-31T09:57:36;2.55;;;1.00;;
56141;SDS011;42018;48.588;10.836;2023-10-31T10:00:22;4.13;;;1.08;;
56141;SDS011;42018;48.588;10.836;2023-10-31T10:03:07;2.05;;;0.90;;
56141;SDS011;42018;48.588;10.836;2023-10-31T10:05:55;2.47;;;0.85;;
56141;SDS011;42018;48.588;10.836;2023-10-31T10:08:42;2.92;;;1.17;;
56141;SDS011;42018;48.588;10.836;2023-10-31T10:11:27;2.42;;;1.00;;
56141;SDS011;42018;48.588;10.836;2023-10-31T10:14:12;4.63;;;1.00;;
56141;SDS011;42018;48.588;10.836;2023-10-31T10:16:58;2.38;;;0.90;;
56141;SDS011;42018;48.588;10.836;2023-10-31T10:19:44;1.77;;;0.98;;
56141;SDS011;42018;48.588;10.836;2023-10-31T10:22:29;3.75;;;1.10;;
56141;SDS011;42018;48.588;10.836;2023-10-31T10:25:16;2.83;;;0.90;;
56141;SDS011;42018;48.588;10.836;2023-10-31T10:28:06;2.47;;;1.02;;
56141;SDS011;42018;48.588;10.836;2023-10-31T10:30:51;3.83;;;1.00;;
56141;SDS011;42018;48.588;10.836;2023-10-31T10:33:40;2.60;;;0.80;;
56141;SDS011;42018;48.588;10.836;2023-10-31T10:36:26;4.60;;;0.90;;
56141;SDS011;42018;48.588;10.836;2023-10-31T10:39:12;2.03;;;0.90;;
56141;SDS011;42018;48.588;10.836;2023-10-31T10:42:09;3.22;;;0.90;;
56141;SDS011;42018;48.588;10.836;2023-10-31T10:45:01;3.53;;;1.20;;
56141;SDS011;42018;48.588;10.836;2023-10-31T10:47:51;3.83;;;1.20;;
56141;SDS011;42018;48.588;10.836;2023-10-31T10:50:41;3.55;;;1.25;;
56141;SDS011;42018;48.588;10.836;2023-10-31T10:53:35;3.15;;;1.10;;
56141;SDS011;42018;48.588;10.836;2023-10-31T10:56:37;3.50;;;1.02;;
56141;SDS011;42018;48.588;10.836;2023-10-31T10:59:30;3.50;;;1.20;;
56141;SDS011;42018;48.588;10.836;2023-10-31T11:02:24;4.18;;;1.00;;
56141;SDS011;42018;48.588;10.836;2023-10-31T11:05:12;3.35;;;1.20;;
56141;SDS011;42018;48.588;10.836;2023-10-31T11:07:58;3.72;;;1.40;;
56141;SDS011;42018;48.588;10.836;2023-10-31T11:10:46;3.75;;;1.02;;
56141;SDS011;42018;48.588;10.836;2023-10-31T11:13:34;3.55;;;1.00;;
56141;SDS011;42018;48.588;10.836;2023-10-31T11:16:23;3.38;;;1.20;;
56141;SDS011;42018;48.588;10.836;2023-10-31T11:19:26;2.33;;;1.10;;
56141;SDS011;42018;48.588;10.836;2023-10-31T11:22:12;4.30;;;1.20;;
56141;SDS011;42018;48.588;10.836;2023-10-31T11:24:57;4.78;;;1.25;;
56141;SDS011;42018;48.588;10.836;2023-10-31T11:27:45;3.33;;;1.25;;
56141;SDS011;42018;48.588;10.836;2023-10-31T11:30:33;4.00;;;1.73;;
56141;SDS011;42018;48.588;10.836;2023-10-31T11:33:19;3.92;;;1.45;;
56141;SDS011;42018;48.588;10.836;2023-10-31T11:36:06;4.00;;;1.30;;
56141;SDS011;42018;48.588;10.836;2023-10-31T11:39:09;4.40;;;1.80;;
56141;SDS011;42018;48.588;10.836;2023-10-31T11:41:59;4.80;;;1.60;;
56141;SDS011;42018;48.588;10.836;2023-10-31T11:44:54;5.22;;;2.67;;
56141;SDS011;42018;48.588;10.836;2023-10-31T11:47:47;4.78;;;2.25;;
56141;SDS011;42018;48.588;10.836;2023-10-31T11:50:33;6.38;;;4.32;;
56141;SDS011;42018;48.588;10.836;2023-10-31T11:53:19;4.65;;;1.48;;
56141;SDS011;42018;48.588;10.836;2023-10-31T11:56:08;5.65;;;2.42;;
56141;SDS011;42018;48.588;10.836;2023-10-31T11:58:56;4.85;;;2.72;;
56141;SDS011;42018;48.588;10.836;2023-10-31T12:01:48;4.22;;;1.45;;
56141;SDS011;42018;48.588;10.836;2023-10-31T12:04:34;4.45;;;1.80;;
56141;SDS011;42018;48.588;10.836;2023-10-31T12:07:19;4.32;;;1.60;;
56141;SDS011;42018;48.588;10.836;2023-10-31T12:10:05;3.95;;;1.42;;
56141;SDS011;42018;48.588;10.836;2023-10-31T12:12:51;4.53;;;1.70;;
56141;SDS011;42018;48.588;10.836;2023-10-31T12:15:36;4.80;;;1.40;;
56141;SDS011;42018;48.588;10.836;2023-10-31T12:18:36;3.30;;;1.50;;
56141;SDS011;42018;48.588;10.836;2023-10-31T12:21:36;3.90;;;1.40;;
56141;SDS011;42018;48.588;10.836;2023-10-31T12:24:34;4.03;;;1.58;;
56141;SDS011;42018;48.588;10.836;2023-10-31T12:27:20;4.82;;;1.50;;
56141;SDS011;42018;48.588;10.836;2023-10-31T12:30:13;6.13;;;2.70;;
56141;SDS011;42018;48.588;10.836;2023-10-31T12:33:00;6.45;;;2.17;;
56141;SDS011;42018;48.588;10.836;2023-10-31T12:35:46;6.43;;;2.20;;
56141;SDS011;42018;48.588;10.836;2023-10-31T12:38:32;4.82;;;1.70;;
56141;SDS011;42018;48.588;10.836;2023-10-31T12:41:17;4.57;;;1.50;;
56141;SDS011;42018;48.588;10.836;2023-10-31T12:44:03;4.72;;;1.70;;
56141;SDS011;42018;48.588;10.836;2023-10-31T12:46:49;4.57;;;1.40;;
56141;SDS011;42018;48.588;10.836;2023-10-31T12:49:36;4.28;;;1.50;;
56141;SDS011;42018;48.588;10.836;2023-10-31T12:52:21;4.13;;;1.60;;
56141;SDS011;42018;48.588;10.836;2023-10-31T12:55:14;4.90;;;1.42;;
56141;SDS011;42018;48.588;10.836;2023-10-31T12:58:00;2.95;;;1.20;;
56141;SDS011;42018;48.588;10.836;2023-10-31T13:00:45;3.80;;;1.40;;
56141;SDS011;42018;48.588;10.836;2023-10-31T13:03:31;3.75;;;1.30;;
56141;SDS011;42018;48.588;10.836;2023-10-31T13:06:16;5.40;;;1.70;;
56141;SDS011;42018;48.588;10.836;2023-10-31T13:09:02;3.65;;;1.25;;
56141;SDS011;42018;48.588;10.836;2023-10-31T13:11:51;3.80;;;1.58;;
56141;SDS011;42018;48.588;10.836;2023-10-31T13:14:36;4.65;;;1.30;;
56141;SDS011;42018;48.588;10.836;2023-10-31T13:17:24;3.92;;;1.50;;
56141;SDS011;42018;48.588;10.836;2023-10-31T13:20:13;4.55;;;1.40;;
56141;SDS011;42018;48.588;10.836;2023-10-31T13:22:59;4.82;;;1.60;;
56141;SDS011;42018;48.588;10.836;2023-10-31T13:25:48;4.50;;;1.52;;
56141;SDS011;42018;48.588;10.836;2023-10-31T13:28:36;3.72;;;1.30;;
56141;SDS011;42018;48.588;10.836;2023-10-31T13:31:24;3.88;;;1.30;;
56141;SDS011;42018;48.588;10.836;2023-10-31T13:34:11;4.03;;;1.35;;
56141;SDS011;42018;48.588;10.836;2023-10-31T13:36:59;3.70;;;1.42;;
56141;SDS011;42018;48.588;10.836;2023-10-31T13:39:45;5.13;;;1.40;;
56141;SDS011;42018;48.588;10.836;2023-10-31T13:42:42;4.30;;;1.30;;
56141;SDS011;42018;48.588;10.836;2023-10-31T13:45:27;5.07;;;1.55;;
56141;SDS011;42018;48.588;10.836;2023-10-31T13:55:18;3.53;;;1.38;;
56141;SDS011;42018;48.588;10.836;2023-10-31T13:58:04;2.92;;;1.15;;
56141;SDS011;42018;48.588;10.836;2023-10-31T14:00:49;2.95;;;1.27;;
56141;SDS011;42018;48.588;10.836;2023-10-31T14:03:37;3.22;;;1.17;;
56141;SDS011;42018;48.588;10.836;2023-10-31T14:06:22;2.33;;;1.13;;
56141;SDS011;42018;48.588;10.836;2023-10-31T14:09:13;4.05;;;1.40;;
56141;SDS011;42018;48.588;10.836;2023-10-31T14:11:59;3.40;;;1.40;;
56141;SDS011;42018;48.588;10.836;2023-10-31T14:14:45;3.88;;;1.45;;
56141;SDS011;42018;48.588;10.836;2023-10-31T14:17:33;4.15;;;1.50;;
56141;SDS011;42018;48.588;10.836;2023-10-31T14:20:20;3.83;;;1.60;;
56141;SDS011;42018;48.588;10.836;2023-10-31T14:23:06;4.15;;;1.40;;
56141;SDS011;42018;48.588;10.836;2023-10-31T14:25:51;4.75;;;1.30;;
56141;SDS011;42018;48.588;10.836;2023-10-31T14:28:37;3.40;;;1.40;;
56141;SDS011;42018;48.588;10.836;2023-10-31T14:31:24;3.67;;;1.40;;
56141;SDS011;42018;48.588;10.836;2023-10-31T14:34:13;4.35;;;1.50;;
56141;SDS011;42018;48.588;10.836;2023-10-31T14:36:58;3.03;;;1.35;;
56141;SDS011;42018;48.588;10.836;2023-10-31T14:39:43;3.60;;;1.58;;
56141;SDS011;42018;48.588;10.836;2023-10-31T14:42:29;3.05;;;1.08;;
56141;SDS011;42018;48.588;10.836;2023-10-31T14:45:14;2.35;;;1.00;;
56141;SDS011;42018;48.588;10.836;2023-10-31T14:48:00;2.10;;;1.00;;
56141;SDS011;42018;48.588;10.836;2023-10-31T14:50:53;3.05;;;1.23;;
56141;SDS011;42018;48.588;10.836;2023-10-31T14:53:38;2.05;;;1.10;;
56141;SDS011;42018;48.588;10.836;2023-10-31T14:56:23;1.95;;;1.00;;
56141;SDS011;42018;48.588;10.836;2023-10-31T14:59:09;2.80;;;1.00;;
56141;SDS011;42018;48.588;10.836;2023-10-31T15:02:04;2.63;;;1.10;;
56141;SDS011;42018;48.588;10.836;2023-10-31T15:04:52;2.30;;;1.20;;
56141;SDS011;42018;48.588;10.836;2023-10-31T15:07:45;2.10;;;1.08;;
56141;SDS011;42018;48.588;10.836;2023-10-31T15:10:33;1.58;;;0.88;;
56141;SDS011;42018;48.588;10.836;2023-10-31T15:13:20;3.35;;;1.25;;
56141;SDS011;42018;48.588;10.836;2023-10-31T15:16:08;1.85;;;1.00;;
56141;SDS011;42018;48.588;10.836;2023-10-31T15:18:53;1.83;;;1.00;;
56141;SDS011;42018;48.588;10.836;2023-10-31T15:21:39;2.85;;;1.15;;
56141;SDS011;42018;48.588;10.836;2023-10-31T15:24:24;2.63;;;1.20;;
56141;SDS011;42018;48.588;10.836;2023-10-31T15:27:11;3.78;;;1.38;;
56141;SDS011;42018;48.588;10.836;2023-10-31T15:29:59;3.40;;;1.30;;
56141;SDS011;42018;48.588;10.836;2023-10-31T15:32:44;3.78;;;1.30;;
56141;SDS011;42018;48.588;10.836;2023-10-31T15:35:29;2.63;;;1.20;;
56141;SDS011;42018;48.588;10.836;2023-10-31T15:38:15;3.50;;;1.20;;
56141;SDS011;42018;48.588;10.836;2023-10-31T15:41:00;3.45;;;1.40;;
56141;SDS011;42018;48.588;10.836;2023-10-31T15:43:46;3.13;;;1.33;;
56141;SDS011;42018;48.588;10.836;2023-10-31T15:46:31;2.58;;;1.30;;
56141;SDS011;42018;48.588;10.836;2023-10-31T15:49:17;3.15;;;1.35;;
56141;SDS011;42018;48.588;10.836;2023-10-31T15:52:03;3.45;;;1.50;;
56141;SDS011;42018;48.588;10.836;2023-10-31T15:54:49;3.38;;;1.50;;
56141;SDS011;42018;48.588;10.836;2023-10-31T15:57:35;4.20;;;1.80;;
56141;SDS011;42018;48.588;10.836;2023-10-31T16:00:21;4.75;;;1.75;;
56141;SDS011;42018;48.588;10.836;2023-10-31T16:03:06;4.35;;;1.77;;
56141;SDS011;42018;48.588;10.836;2023-10-31T16:05:51;4.15;;;1.70;;
56141;SDS011;42018;48.588;10.836;2023-10-31T16:08:37;4.90;;;1.83;;
56141;SDS011;42018;48.588;10.836;2023-10-31T16:11:25;3.75;;;1.80;;
56141;SDS011;42018;48.588;10.836;2023-10-31T16:14:10;3.55;;;1.92;;
56141;SDS011;42018;48.588;10.836;2023-10-31T16:16:55;3.67;;;1.80;;
56141;SDS011;42018;48.588;10.836;2023-10-31T16:19:41;5.03;;;1.80;;
56141;SDS011;42018;48.588;10.836;2023-10-31T16:22:27;3.90;;;1.70;;
56141;SDS011;42018;48.588;10.836;2023-10-31T16:25:12;3.70;;;1.70;;
56141;SDS011;42018;48.588;10.836;2023-10-31T16:27:58;3.05;;;1.60;;
56141;SDS011;42018;48.588;10.836;2023-10-31T16:30:43;3.90;;;1.80;;
56141;SDS011;42018;48.588;10.836;2023-10-31T16:33:29;3.97;;;2.25;;
56141;SDS011;42018;48.588;10.836;2023-10-31T16:36:14;4.43;;;2.05;;
56141;SDS011;42018;48.588;10.836;2023-10-31T16:39:00;3.53;;;1.90;;
56141;SDS011;42018;48.588;10.836;2023-10-31T16:41:46;3.92;;;1.90;;
56141;SDS011;42018;48.588;10.836;2023-10-31T16:44:31;4.90;;;1.85;;
56141;SDS011;42018;48.588;10.836;2023-10-31T16:47:17;3.60;;;2.00;;
56141;SDS011;42018;48.588;10.836;2023-10-31T16:50:02;3.72;;;1.98;;
56141;SDS011;42018;48.588;10.836;2023-10-31T16:52:48;4.22;;;1.90;;
56141;SDS011;42018;48.588;10.836;2023-10-31T16:55:34;3.90;;;2.00;;
56141;SDS011;42018;48.588;10.836;2023-10-31T16:58:19;6.00;;;2.00;;
56141;SDS011;42018;48.588;10.836;2023-10-31T17:01:05;4.35;;;2.00;;
56141;SDS011;42018;48.588;10.836;2023-10-31T17:03:51;4.00;;;1.88;;
56141;SDS011;42018;48.588;10.836;2023-10-31T17:06:36;4.15;;;2.00;;
56141;SDS011;42018;48.588;10.836;2023-10-31T17:09:21;5.28;;;2.38;;
56141;SDS011;42018;48.588;10.836;2023-10-31T17:12:07;5.07;;;2.33;;
56141;SDS011;42018;48.588;10.836;2023-10-31T17:14:52;5.18;;;2.10;;
56141;SDS011;42018;48.588;10.836;2023-10-31T17:17:40;4.30;;;1.92;;
56141;SDS011;42018;48.588;10.836;2023-10-31T17:20:26;4.88;;;2.00;;
56141;SDS011;42018;48.588;10.836;2023-10-31T17:23:11;3.97;;;1.98;;
56141;SDS011;42018;48.588;10.836;2023-10-31T17:25:56;4.57;;;1.77;;
56141;SDS011;42018;48.588;10.836;2023-10-31T17:28:42;3.80;;;1.67;;
56141;SDS011;42018;48.588;10.836;2023-10-31T17:31:27;4.97;;;1.88;;
56141;SDS011;42018;48.588;10.836;2023-10-31T17:34:12;4.53;;;1.77;;
56141;SDS011;42018;48.588;10.836;2023-10-31T17:36:59;3.50;;;1.67;;
56141;SDS011;42018;48.588;10.836;2023-10-31T17:39:46;3.83;;;1.60;;
56141;SDS011;42018;48.588;10.836;2023-10-31T17:42:32;3.60;;;1.88;;
56141;SDS011;42018;48.588;10.836;2023-10-31T17:45:19;4.70;;;1.90;;
56141;SDS011;42018;48.588;10.836;2023-10-31T17:48:07;4.35;;;1.80;;
56141;SDS011;42018;48.588;10.836;2023-10-31T17:50:54;3.85;;;1.58;;
56141;SDS011;42018;48.588;10.836;2023-10-31T17:53:40;3.67;;;1.70;;
56141;SDS011;42018;48.588;10.836;2023-10-31T17:56:26;4.03;;;1.55;;
56141;SDS011;42018;48.588;10.836;2023-10-31T17:59:11;3.45;;;1.45;;
56141;SDS011;42018;48.588;10.836;2023-10-31T18:01:56;3.67;;;1.70;;
56141;SDS011;42018;48.588;10.836;2023-10-31T18:04:43;3.33;;;1.48;;
56141;SDS011;42018;48.588;10.836;2023-10-31T18:07:30;3.45;;;1.60;;
56141;SDS011;42018;48.588;10.836;2023-10-31T18:10:16;2.65;;;1.40;;
56141;SDS011;42018;48.588;10.836;2023-10-31T18:13:01;3.03;;;1.42;;
56141;SDS011;42018;48.588;10.836;2023-10-31T18:15:47;3.78;;;1.50;;
56141;SDS011;42018;48.588;10.836;2023-10-31T18:18:32;3.50;;;1.63;;
56141;SDS011;42018;48.588;10.836;2023-10-31T18:21:17;3.13;;;1.52;;
56141;SDS011;42018;48.588;10.836;2023-10-31T18:24:03;4.15;;;1.50;;
56141;SDS011;42018;48.588;10.836;2023-10-31T18:26:49;3.42;;;1.40;;
56141;SDS011;42018;48.588;10.836;2023-10-31T18:29:34;2.92;;;1.45;;
56141;SDS011;42018;48.588;10.836;2023-10-31T18:32:19;4.32;;;1.73;;
56141;SDS011;42018;48.588;10.836;2023-10-31T18:35:06;4.03;;;1.40;;
56141;SDS011;42018;48.588;10.836;2023-10-31T18:37:52;2.60;;;1.40;;
56141;SDS011;42018;48.588;10.836;2023-10-31T18:40:37;3.88;;;1.65;;
56141;SDS011;42018;48.588;10.836;2023-10-31T18:43:23;3.38;;;1.50;;
56141;SDS011;42018;48.588;10.836;2023-10-31T18:46:11;2.70;;;1.60;;
56141;SDS011;42018;48.588;10.836;2023-10-31T18:48:57;4.68;;;1.60;;
56141;SDS011;42018;48.588;10.836;2023-10-31T18:51:42;3.70;;;1.67;;
56141;SDS011;42018;48.588;10.836;2023-10-31T18:54:28;4.07;;;1.70;;
56141;SDS011;42018;48.588;10.836;2023-10-31T18:57:13;3.40;;;1.73;;
56141;SDS011;42018;48.588;10.836;2023-10-31T18:59:58;7.25;;;1.83;;
56141;SDS011;42018;48.588;10.836;2023-10-31T19:02:46;3.15;;;1.80;;
56141;SDS011;42018;48.588;10.836;2023-10-31T19:05:31;3.55;;;1.63;;
56141;SDS011;42018;48.588;10.836;2023-10-31T19:08:17;3.20;;;1.80;;
56141;SDS011;42018;48.588;10.836;2023-10-31T19:11:02;3.00;;;1.60;;
56141;SDS011;42018;48.588;10.836;2023-10-31T19:13:48;4.47;;;1.80;;
56141;SDS011;42018;48.588;10.836;2023-10-31T19:16:33;3.97;;;1.95;;
56141;SDS011;42018;48.588;10.836;2023-10-31T19:19:19;2.83;;;1.58;;
56141;SDS011;42018;48.588;10.836;2023-10-31T19:22:05;3.08;;;1.88;;
56141;SDS011;42018;48.588;10.836;2023-10-31T19:24:50;3.28;;;1.83;;
56141;SDS011;42018;48.588;10.836;2023-10-31T19:27:36;4.28;;;2.13;;
56141;SDS011;42018;48.588;10.836;2023-10-31T19:30:21;4.20;;;2.10;;
56141;SDS011;42018;48.588;10.836;2023-10-31T19:33:06;3.25;;;1.92;;
56141;SDS011;42018;48.588;10.836;2023-10-31T19:35:52;3.70;;;2.08;;
56141;SDS011;42018;48.588;10.836;2023-10-31T19:38:37;3.72;;;1.92;;
56141;SDS011;42018;48.588;10.836;2023-10-31T19:41:23;4.43;;;1.95;;
56141;SDS011;42018;48.588;10.836;2023-10-31T19:44:08;5.05;;;2.40;;
56141;SDS011;42018;48.588;10.836;2023-10-31T19:46:53;3.70;;;2.28;;
56141;SDS011;42018;48.588;10.836;2023-10-31T19:49:39;4.50;;;2.15;;
56141;SDS011;42018;48.588;10.836;2023-10-31T19:52:27;4.85;;;2.38;;
56141;SDS011;42018;48.588;10.836;2023-10-31T19:55:12;3.92;;;2.10;;
56141;SDS011;42018;48.588;10.836;2023-10-31T19:57:58;4.28;;;2.45;;
56141;SDS011;42018;48.588;10.836;2023-10-31T20:00:43;4.53;;;2.35;;
56141;SDS011;42018;48.588;10.836;2023-10-31T20:03:29;4.10;;;2.05;;
56141;SDS011;42018;48.588;10.836;2023-10-31T20:06:14;3.50;;;1.95;;
56141;SDS011;42018;48.588;10.836;2023-10-31T20:08:59;4.82;;;1.92;;
56141;SDS011;42018;48.588;10.836;2023-10-31T20:11:45;4.65;;;1.92;;
56141;SDS011;42018;48.588;10.836;2023-10-31T20:14:31;3.35;;;1.90;;
56141;SDS011;42018;48.588;10.836;2023-10-31T20:17:19;4.10;;;2.10;;
56141;SDS011;42018;48.588;10.836;2023-10-31T20:20:05;2.85;;;1.50;;
56141;SDS011;42018;48.588;10.836;2023-10-31T20:23:11;2.80;;;1.55;;
56141;SDS011;42018;48.588;10.836;2023-10-31T20:25:56;3.08;;;1.65;;
56141;SDS011;42018;48.588;10.836;2023-10-31T20:28:42;2.63;;;1.40;;
56141;SDS011;42018;48.588;10.836;2023-10-31T20:31:27;3.03;;;1.40;;
56141;SDS011;42018;48.588;10.836;2023-10-31T20:34:13;2.92;;;1.40;;
56141;SDS011;42018;48.588;10.836;2023-10-31T20:36:58;2.85;;;1.30;;
56141;SDS011;42018;48.588;10.836;2023-10-31T20:39:44;2.50;;;1.25;;
56141;SDS011;42018;48.588;10.836;2023-10-31T20:42:29;3.33;;;1.30;;
56141;SDS011;42018;48.588;10.836;2023-10-31T20:45:15;2.42;;;1.40;;
56141;SDS011;42018;48.588;10.836;2023-10-31T20:48:00;2.15;;;1.30;;
56141;SDS011;42018;48.588;10.836;2023-10-31T20:50:46;2.15;;;1.20;;
56141;SDS011;42018;48.588;10.836;2023-10-31T20:53:31;2.22;;;1.20;;
56141;SDS011;42018;48.588;10.836;2023-10-31T20:56:17;2.28;;;1.27;;
56141;SDS011;42018;48.588;10.836;2023-10-31T20:59:02;4.82;;;2.40;;
56141;SDS011;42018;48.588;10.836;2023-10-31T21:01:48;4.35;;;2.03;;
56141;SDS011;42018;48.588;10.836;2023-10-31T21:04:33;3.95;;;1.88;;
56141;SDS011;42018;48.588;10.836;2023-10-31T21:07:21;6.07;;;3.60;;
56141;SDS011;42018;48.588;10.836;2023-10-31T21:10:06;5.65;;;3.00;;
56141;SDS011;42018;48.588;10.836;2023-10-31T21:12:52;7.22;;;4.20;;
56141;SDS011;42018;48.588;10.836;2023-10-31T21:15:38;4.32;;;1.83;;
56141;SDS011;42018;48.588;10.836;2023-10-31T21:18:23;2.80;;;1.50;;
56141;SDS011;42018;48.588;10.836;2023-10-31T21:21:09;2.45;;;1.40;;
56141;SDS011;42018;48.588;10.836;2023-10-31T21:23:55;2.45;;;1.40;;
56141;SDS011;42018;48.588;10.836;2023-10-31T21:26:40;2.70;;;1.40;;
56141;SDS011;42018;48.588;10.836;2023-10-31T21:29:25;3.55;;;1.50;;
56141;SDS011;42018;48.588;10.836;2023-10-31T21:32:11;2.67;;;1.38;;
56141;SDS011;42018;48.588;10.836;2023-10-31T21:34:56;2.65;;;1.40;;
56141;SDS011;42018;48.588;10.836;2023-10-31T21:37:41;2.63;;;1.42;;
56141;SDS011;42018;48.588;10.836;2023-10-31T21:40:27;2.42;;;1.25;;
56141;SDS011;42018;48.588;10.836;2023-10-31T21:43:12;4.30;;;1.60;;
56141;SDS011;42018;48.588;10.836;2023-10-31T21:45:58;4.47;;;1.92;;
56141;SDS011;42018;48.588;10.836;2023-10-31T21:48:43;3.05;;;1.55;;
56141;SDS011;42018;48.588;10.836;2023-10-31T21:51:29;2.53;;;1.30;;
56141;SDS011;42018;48.588;10.836;2023-10-31T21:54:14;2.95;;;1.35;;
56141;SDS011;42018;48.588;10.836;2023-10-31T21:57:00;2.97;;;1.67;;
56141;SDS011;42018;48.588;10.836;2023-10-31T21:59:46;2.65;;;1.33;;
56141;SDS011;42018;48.588;10.836;2023-10-31T22:02:32;2.50;;;1.30;;
56141;SDS011;42018;48.588;10.836;2023-10-31T22:05:17;2.45;;;1.35;;
56141;SDS011;42018;48.588;10.836;2023-10-31T22:08:03;2.38;;;1.30;;
56141;SDS011;42018;48.588;10.836;2023-10-31T22:10:49;2.95;;;1.25;;
56141;SDS011;42018;48.588;10.836;2023-10-31T22:13:34;2.75;;;1.20;;
56141;SDS011;42018;48.588;10.836;2023-10-31T22:16:19;2.95;;;1.35;;
56141;SDS011;42018;48.588;10.836;2023-10-31T22:19:05;4.20;;;1.33;;
56141;SDS011;42018;48.588;10.836;2023-10-31T22:21:52;2.38;;;1.30;;
56141;SDS011;42018;48.588;10.836;2023-10-31T22:24:38;2.75;;;1.38;;
56141;SDS011;42018;48.588;10.836;2023-10-31T22:27:23;2.80;;;1.40;;
56141;SDS011;42018;48.588;10.836;2023-10-31T22:30:09;2.95;;;1.33;;
56141;SDS011;42018;48.588;10.836;2023-10-31T22:32:55;2.58;;;1.27;;
56141;SDS011;42018;48.588;10.836;2023-10-31T22:35:40;3.22;;;1.20;;
56141;SDS011;42018;48.588;10.836;2023-10-31T22:38:25;2.03;;;1.20;;
56141;SDS011;42018;48.588;10.836;2023-10-31T22:41:11;2.20;;;1.30;;
56141;SDS011;42018;48.588;10.836;2023-10-31T22:43:56;2.72;;;1.23;;
56141;SDS011;42018;48.588;10.836;2023-10-31T22:46:42;2.88;;;1.20;;
56141;SDS011;42018;48.588;10.836;2023-10-31T22:49:29;3.55;;;1.48;;
56141;SDS011;42018;48.588;10.836;2023-10-31T22:52:14;3.63;;;1.75;;
56141;SDS011;42018;48.588;10.836;2023-10-31T22:54:59;3.13;;;1.63;;
56141;SDS011;42018;48.588;10.836;2023-10-31T22:57:45;2.92;;;1.33;;
56141;SDS011;42018;48.588;10.836;2023-10-31T23:00:30;2.40;;;1.30;;
56141;SDS011;42018;48.588;10.836;2023-10-31T23:03:18;2.20;;;1.30;;
56141;SDS011;42018;48.588;10.836;2023-10-31T23:06:03;3.83;;;1.52;;
56141;SDS011;42018;48.588;10.836;2023-10-31T23:08:49;3.25;;;1.70;;
56141;SDS011;42018;48.588;10.836;2023-10-31T23:11:35;4.10;;;1.50;;
56141;SDS011;42018;48.588;10.836;2023-10-31T23:14:20;2.97;;;1.60;;
56141;SDS011;42018;48.588;10.836;2023-10-31T23:17:05;3.42;;;1.40;;
56141;SDS011;42018;48.588;10.836;2023-10-31T23:19:51;2.95;;;1.40;;
56141;SDS011;42018;48.588;10.836;2023-10-31T23:22:41;3.60;;;1.50;;
56141;SDS011;42018;48.588;10.836;2023-10-31T23:25:26;3.25;;;1.58;;
56141;SDS011;42018;48.588;10.836;2023-10-31T23:28:14;2.30;;;1.35;;
56141;SDS011;42018;48.588;10.836;2023-10-31T23:30:59;3.58;;;1.65;;
56141;SDS011;42018;48.588;10.836;2023-10-31T23:33:45;3.08;;;1.55;;